Durham, NC

9:05 AM EDT on July 29, 2015 (GMT -0400)
Trinity Park | | Change Station
CLOSE
Current Station
Personal Weather Station
Location: Durham, NC
Elevation: 400 ft
Nearby Weather Stations

Elev 400 ft 36.01 °N, 78.91 °W | Updated 14 seconds ago

Mostly Cloudy
Mostly Cloudy
77.8 °F
Feels Like 80 °F
N
0.0
Wind Variable Wind from ESE
Gusts 0.0 mph

Today
High -- | Low -- °F
--% Chance of Precip.
Yesterday
High -- | Low -- °F
Precip. -- in
6:20 AM 8:23 PM
Waxing Gibbous, 95% visible
Pressure 30.02 in
Visibility 10.0 miles
Clouds Few 1400 ft
Mostly Cloudy 6000 ft
Mostly Cloudy 12000 ft
Mostly Cloudy 25000 ft
Heat Index 80 °F
Dew Point 74 °F
Humidity 87%
Rainfall 0.00 in
Snow Depth Not available.
UV 2 out of 12
Pollen 2.60 out of 12
Air Quality Not available.
Flu Activity Not available.
METAR KRDU 291251Z 20005KT 10SM FEW014 BKN060 BKN120 BKN250 26/22 A3004 RMK AO2 SLP166 T02610222 $

More Conditions Fewer Conditions

Pressure 30.02 in
Visibility 10.0 miles
Clouds Few 1400 ft
Mostly Cloudy 6000 ft
Mostly Cloudy 12000 ft
Mostly Cloudy 25000 ft
Heat Index 80 °F
Dew Point 74 °F
Humidity 87%
Rainfall 0.00 in
Snow Depth Not available.
UV 2 out of 12
Pollen 2.60 out of 12
Air Quality Not available.
Flu Activity Not available.
METAR KRDU 291251Z 20005KT 10SM FEW014 BKN060 BKN120 BKN250 26/22 A3004 RMK AO2 SLP166 T02610222 $

More Conditions Fewer Conditions

10-Day Weather Forecast

×

Almanac

Astronomy

Jul. 29, 2015 Rise Set
Actual Time
Civil Twilight
Nautical Twilight
Astronomical Twilight
Moon
Length of Visible Light
Length of Day
Tomorrow will be .
, % of the Moon is Illuminated

Today's Extremes

State Highs State Lows

Community

WunderPhotos

Upload Photos

1,842,089 photos uploaded!

WunderBlogs® & News

Nearby

Air Quality

  Air Quality AQ Index Pollutant
Not available.

Snow Depth

Station Depth Elevation

Earthquake Activity

City Distance Mag. Time & Date
Minimum magnitude displayed is 2.5.

Coastal Water Temperatures

Place Temperature

Stations

Nearby Weather Stations

Station Location Temp. Windchill Dew Point Humidity Wind Precip. Elev Updated Type